Time;durP1;ratioP1;P1;durP2;ratioP2;P2;SDS_P1;SDS_P2;PMS_P1;PMS_P2;Temp;Humidity;BMP_temperature;BMP_pressure;BME280_temperature;BME280_humidity;BME280_pressure;Samples;Min_cycle;Max_cycle;Signal;HPM_P1;HPM_P2
2021/11/01 00:00:00;;;;;;;;;;;;;;;;;;347007;28;873;-74
2021/11/01 00:00:12;;;;;;;;;;;;;;;;;;346890;28;1405;-74
2021/11/01 00:00:23;;;;;;;;;;;;;;;;;;346996;28;1141;-74
2021/11/01 00:00:34;;;;;;;;;;;;;;;;;;345727;28;973;-75
2021/11/01 00:00:58;;;;;;;;;;;;;;;;;;345742;28;1433;-75
2021/11/01 00:01:15;;;;;;;;;;;;;;;;;;345875;28;1017;-74
2021/11/01 00:01:26;;;;;;;;;;;;;;;;;;344332;28;1273;-75
2021/11/01 00:01:36;;;;;;;;;;;;;;;;;;344485;28;822;-74
2021/11/01 00:01:47;;;;;;;;;;;;;;;;;;344457;28;969;-75
2021/11/01 00:01:59;;;;;;;;;;;;;;;;;;345798;28;1697;-74
2021/11/01 00:02:09;;;;;;;;;;;;;;;;;;345870;28;869;-74
2021/11/01 00:02:19;;;;;;;;;;;;;;;;;;345852;28;881;-74
2021/11/01 00:02:30;;;;;;;;;;;;;;;;;;345889;28;869;-75
2021/11/01 00:02:41;;;;;;;;;;;;;;;;;;346477;28;834;-75
2021/11/01 00:03:17;;;;;;;;;;;;;;;;;;347166;28;981;-75
2021/11/01 00:03:27;;;;;;;;;;;;;;;;;;348605;28;837;-74
2021/11/01 00:03:38;;;;;;;;;;;;;;;;;;348445;28;992;-75
2021/11/01 00:03:49;;;;;;;;;;;;;;;;;;346791;28;1165;-74
2021/11/01 00:04:03;;;;;;;;;;;;;;;;;;347148;28;1276;-74
2021/11/01 00:04:13;;;;;;;;;;;;;;;;;;347230;28;928;-74
2021/11/01 00:04:23;;;;;;;;;;;;;;;;;;347175;28;964;-74
2021/11/01 00:04:34;;;;;;;;;;;;;;;;;;346869;28;1038;-75
2021/11/01 00:04:44;;;;;;;;;;;;;;;;;;347100;28;941;-74
2021/11/01 00:04:55;;;;;;;;;;;;;;;;;;347078;28;1156;-74
2021/11/01 00:05:05;;;;;;;;;;;;;;;;;;346800;28;1018;-75
2021/11/01 00:05:17;;;;;;;;;;;;;;;;;;345690;28;1293;-74
2021/11/01 00:05:27;;;;;;;;;;;;;;;;;;345719;28;814;-75
2021/11/01 00:06:06;;;;;;;;;;;;;;;;;;347167;28;921;-74
2021/11/01 00:06:16;;;;;;;;;;;;;;;;;;347273;28;826;-75
2021/11/01 00:06:27;;;;;;;;;;;;;;;;;;345763;28;1585;-75
2021/11/01 00:06:37;;;;;;;;;;;;;;;;;;345852;28;846;-74
2021/11/01 00:07:00;;;;;;;;;;;;;;;;;;345747;28;1362;-75
2021/11/01 00:07:21;;;;;;;;;;;;;;;;;;347067;28;945;-74
2021/11/01 00:07:32;;;;;;;;;;;;;;;;;;346251;28;1151;-75
2021/11/01 00:07:43;;;;;;;;;;;;;;;;;;347266;28;980;-75
2021/11/01 00:07:53;;;;;;;;;;;;;;;;;;345709;28;1399;-74
2021/11/01 00:08:04;;;;;;;;;;;;;;;;;;345743;28;909;-75
2021/11/01 00:08:15;;;;;;;;;;;;;;;;;;345778;28;834;-75
2021/11/01 00:08:25;;;;;;;;;;;;;;;;;;345826;28;862;-75
2021/11/01 00:08:37;;;;;;;;;;;;;;;;;;344389;28;1274;-75
2021/11/01 00:08:47;;;;;;;;;;;;;;;;;;345612;28;811;-75
2021/11/01 00:09:04;;;;;;;;;;;;;;;;;;345839;28;933;-74
2021/11/01 00:09:14;;;;;;;;;;;;;;;;;;345813;28;822;-75
2021/11/01 00:09:28;;;;;;;;;;;;;;;;;;346011;28;865;-75
2021/11/01 00:09:38;;;;;;;;;;;;;;;;;;347121;28;1043;-74
2021/11/01 00:09:49;;;;;;;;;;;;;;;;;;347894;28;881;-74
2021/11/01 00:09:59;;;;;;;;;;;;;;;;;;347222;28;822;-74
2021/11/01 00:10:11;;;;;;;;;;;;;;;;;;345788;28;893;-75
2021/11/01 00:10:22;;;;;;;;;;;;;;;;;;345713;28;1003;-75
2021/11/01 00:10:33;;;;;;;;;;;;;;;;;;346537;28;977;-73
2021/11/01 00:10:44;;;;;;;;;;;;;;;;;;347124;28;981;-73
2021/11/01 00:10:54;;;;;;;;;;;;;;;;;;345837;28;794;-74
2021/11/01 00:11:05;;;;;;;;;;;;;;;;;;345869;28;953;-75
2021/11/01 00:11:15;;;;;;;;;;;;;;;;;;345797;28;782;-74
2021/11/01 00:11:26;;;;;;;;;;;;;;;;;;345809;28;984;-74
2021/11/01 00:11:54;;;;;;;;;;;;;;;;;;345534;28;1068;-74
2021/11/01 00:12:17;;;;;;;;;;;;;;;;;;346375;28;1001;-74
2021/11/01 00:12:33;;;;;;;;;;;;;;;;;;347116;28;842;-75
2021/11/01 00:12:44;;;;;;;;;;;;;;;;;;345783;28;1186;-75
2021/11/01 00:12:55;;;;;;;;;;;;;;;;;;344384;28;1145;-75
2021/11/01 00:14:07;;;;;;;;;;;;;;;;;;345821;28;941;-75
2021/11/01 00:14:24;;;;;;;;;;;;;;;;;;347174;28;1043;-75
2021/11/01 00:14:35;;;;;;;;;;;;;;;;;;347235;28;937;-74
2021/11/01 00:14:46;;;;;;;;;;;;;;;;;;347007;28;992;-74
2021/11/01 00:15:02;;;;;;;;;;;;;;;;;;347150;28;831;-75
2021/11/01 00:15:45;;;;;;;;;;;;;;;;;;346975;28;1168;-75
2021/11/01 00:15:56;;;;;;;;;;;;;;;;;;347213;28;881;-73
2021/11/01 00:16:35;;;;;;;;;;;;;;;;;;347217;28;861;-74
2021/11/01 00:16:46;;;;;;;;;;;;;;;;;;348402;28;937;-74
2021/11/01 00:16:57;;;;;;;;;;;;;;;;;;347049;28;1228;-74
2021/11/01 00:17:08;;;;;;;;;;;;;;;;;;347205;28;1017;-74
2021/11/01 00:17:18;;;;;;;;;;;;;;;;;;347172;28;945;-75
2021/11/01 00:17:35;;;;;;;;;;;;;;;;;;347203;28;1001;-76
2021/11/01 00:17:45;;;;;;;;;;;;;;;;;;348498;28;985;-74
2021/11/01 00:17:56;;;;;;;;;;;;;;;;;;348556;28;981;-75
2021/11/01 00:18:06;;;;;;;;;;;;;;;;;;348532;28;988;-74
2021/11/01 00:18:17;;;;;;;;;;;;;;;;;;347098;28;1275;-75
2021/11/01 00:18:27;;;;;;;;;;;;;;;;;;347212;28;846;-75
2021/11/01 00:18:38;;;;;;;;;;;;;;;;;;346759;28;1002;-75
2021/11/01 00:18:48;;;;;;;;;;;;;;;;;;347362;28;786;-75
2021/11/01 00:18:59;;;;;;;;;;;;;;;;;;347163;28;961;-74
2021/11/01 00:19:09;;;;;;;;;;;;;;;;;;347094;28;850;-75
2021/11/01 00:19:27;;;;;;;;;;;;;;;;;;347176;28;996;-74
2021/11/01 00:19:37;;;;;;;;;;;;;;;;;;347197;28;1023;-75
2021/11/01 00:19:47;;;;;;;;;;;;;;;;;;347079;28;874;-74
2021/11/01 00:19:58;;;;;;;;;;;;;;;;;;347206;28;892;-75
2021/11/01 00:20:09;;;;;;;;;;;;;;;;;;346833;28;956;-74
2021/11/01 00:20:21;;;;;;;;;;;;;;;;;;348551;28;992;-74
2021/11/01 00:20:32;;;;;;;;;;;;;;;;;;348488;28;987;-74
2021/11/01 00:20:42;;;;;;;;;;;;;;;;;;348457;28;873;-74
2021/11/01 00:21:05;;;;;;;;;;;;;;;;;;347078;28;1604;-74
2021/11/01 00:21:21;;;;;;;;;;;;;;;;;;347108;28;857;-75
2021/11/01 00:21:37;;;;;;;;;;;;;;;;;;347125;28;952;-74
2021/11/01 00:21:47;;;;;;;;;;;;;;;;;;347264;28;751;-74
2021/11/01 00:21:58;;;;;;;;;;;;;;;;;;347167;28;1111;-74
2021/11/01 00:22:08;;;;;;;;;;;;;;;;;;347235;28;917;-75
2021/11/01 00:22:19;;;;;;;;;;;;;;;;;;347174;28;973;-74
2021/11/01 00:22:29;;;;;;;;;;;;;;;;;;347138;28;976;-74
2021/11/01 00:22:40;;;;;;;;;;;;;;;;;;346327;28;869;-74
2021/11/01 00:22:50;;;;;;;;;;;;;;;;;;346673;28;1232;-74
2021/11/01 00:23:01;;;;;;;;;;;;;;;;;;347190;28;1027;-75
2021/11/01 00:23:23;;;;;;;;;;;;;;;;;;347175;28;1004;-74
2021/11/01 00:23:40;;;;;;;;;;;;;;;;;;345754;28;1299;-74
2021/11/01 00:23:51;;;;;;;;;;;;;;;;;;345709;28;1296;-74
2021/11/01 00:24:01;;;;;;;;;;;;;;;;;;344347;28;1165;-74
2021/11/01 00:24:27;;;;;;;;;;;;;;;;;;344458;28;998;-74
2021/11/01 00:24:38;;;;;;;;;;;;;;;;;;344454;28;981;-74
2021/11/01 00:24:54;;;;;;;;;;;;;;;;;;347210;28;905;-73
2021/11/01 00:25:06;;;;;;;;;;;;;;;;;;345502;28;944;-75
2021/11/01 00:25:16;;;;;;;;;;;;;;;;;;345705;28;1509;-74
2021/11/01 00:25:53;;;;;;;;;;;;;;;;;;347152;28;893;-73
2021/11/01 00:26:03;;;;;;;;;;;;;;;;;;348589;28;821;-75
2021/11/01 00:26:20;;;;;;;;;;;;;;;;;;348584;28;913;-73
2021/11/01 00:26:31;;;;;;;;;;;;;;;;;;348565;28;861;-74
2021/11/01 00:26:42;;;;;;;;;;;;;;;;;;348542;28;897;-75
2021/11/01 00:26:52;;;;;;;;;;;;;;;;;;347161;28;921;-74
2021/11/01 00:27:03;;;;;;;;;;;;;;;;;;347100;28;1125;-74
2021/11/01 00:27:29;;;;;;;;;;;;;;;;;;347132;28;1961;-74
2021/11/01 00:27:39;;;;;;;;;;;;;;;;;;345800;28;985;-74
2021/11/01 00:27:50;;;;;;;;;;;;;;;;;;344320;28;1311;-75
2021/11/01 00:28:00;;;;;;;;;;;;;;;;;;344301;28;1403;-76
2021/11/01 00:28:11;;;;;;;;;;;;;;;;;;343150;28;866;-75
2021/11/01 00:28:22;;;;;;;;;;;;;;;;;;343109;28;958;-74
2021/11/01 00:28:32;;;;;;;;;;;;;;;;;;343158;28;802;-73
2021/11/01 00:28:44;;;;;;;;;;;;;;;;;;343119;28;1172;-74
2021/11/01 00:28:54;;;;;;;;;;;;;;;;;;343070;28;993;-74
2021/11/01 00:29:06;;;;;;;;;;;;;;;;;;343101;28;827;-74
2021/11/01 00:29:16;;;;;;;;;;;;;;;;;;343177;28;878;-75
2021/11/01 00:29:26;;;;;;;;;;;;;;;;;;343190;28;791;-73
2021/11/01 00:29:37;;;;;;;;;;;;;;;;;;343998;28;815;-74
2021/11/01 00:29:53;;;;;;;;;;;;;;;;;;346122;28;831;-74
2021/11/01 00:30:05;;;;;;;;;;;;;;;;;;346193;28;815;-75
2021/11/01 00:30:16;;;;;;;;;;;;;;;;;;345480;28;1397;-75
2021/11/01 00:30:27;;;;;;;;;;;;;;;;;;344816;28;1329;-75
2021/11/01 00:30:43;;;;;;;;;;;;;;;;;;345806;28;925;-75
2021/11/01 00:30:56;;;;;;;;;;;;;;;;;;345655;28;925;-75
2021/11/01 00:31:06;;;;;;;;;;;;;;;;;;345810;28;937;-75
2021/11/01 00:32:09;;;;;;;;;;;;;;;;;;346168;28;985;-74
2021/11/01 00:32:19;;;;;;;;;;;;;;;;;;348573;28;818;-75
2021/11/01 00:32:30;;;;;;;;;;;;;;;;;;348419;28;1134;-73
2021/11/01 00:33:06;;;;;;;;;;;;;;;;;;348547;28;1024;-75
2021/11/01 00:33:16;;;;;;;;;;;;;;;;;;348522;28;881;-76
2021/11/01 00:33:27;;;;;;;;;;;;;;;;;;347187;28;866;-73
2021/11/01 00:33:38;;;;;;;;;;;;;;;;;;345734;28;1490;-74
2021/11/01 00:34:04;;;;;;;;;;;;;;;;;;345825;28;874;-74
2021/11/01 00:34:14;;;;;;;;;;;;;;;;;;345772;28;1032;-74
2021/11/01 00:34:25;;;;;;;;;;;;;;;;;;345774;28;1004;-75
2021/11/01 00:34:35;;;;;;;;;;;;;;;;;;344871;28;1036;-74
2021/11/01 00:34:46;;;;;;;;;;;;;;;;;;345748;28;811;-73
2021/11/01 00:34:58;;;;;;;;;;;;;;;;;;344492;28;834;-74
2021/11/01 00:35:09;;;;;;;;;;;;;;;;;;344413;28;1008;-74
2021/11/01 00:35:19;;;;;;;;;;;;;;;;;;344366;28;1204;-73
2021/11/01 00:35:30;;;;;;;;;;;;;;;;;;343026;28;1689;-74
2021/11/01 00:35:40;;;;;;;;;;;;;;;;;;344386;28;969;-75
2021/11/01 00:35:51;;;;;;;;;;;;;;;;;;344339;28;1087;-73
2021/11/01 00:36:02;;;;;;;;;;;;;;;;;;343013;28;1270;-74
2021/11/01 00:36:13;;;;;;;;;;;;;;;;;;343139;28;1021;-74
2021/11/01 00:36:23;;;;;;;;;;;;;;;;;;343017;28;1047;-74
2021/11/01 00:36:34;;;;;;;;;;;;;;;;;;343123;28;889;-74
2021/11/01 00:37:10;;;;;;;;;;;;;;;;;;344490;28;878;-74
2021/11/01 00:37:20;;;;;;;;;;;;;;;;;;344411;28;855;-74
2021/11/01 00:37:31;;;;;;;;;;;;;;;;;;344292;28;1432;-74
2021/11/01 00:38:28;;;;;;;;;;;;;;;;;;347181;28;1004;-74
2021/11/01 00:38:39;;;;;;;;;;;;;;;;;;345569;28;1422;-75
2021/11/01 00:38:50;;;;;;;;;;;;;;;;;;345820;28;960;-74
2021/11/01 00:39:01;;;;;;;;;;;;;;;;;;345698;28;1168;-75
2021/11/01 00:39:11;;;;;;;;;;;;;;;;;;345742;28;886;-75
2021/11/01 00:39:22;;;;;;;;;;;;;;;;;;347158;28;1048;-74
2021/11/01 00:39:59;;;;;;;;;;;;;;;;;;347195;28;933;-75
2021/11/01 00:40:10;;;;;;;;;;;;;;;;;;347113;28;993;-74
2021/11/01 00:40:20;;;;;;;;;;;;;;;;;;347124;28;1385;-74
2021/11/01 00:40:31;;;;;;;;;;;;;;;;;;347201;28;853;-73
2021/11/01 00:41:07;;;;;;;;;;;;;;;;;;347024;28;1208;-74
2021/11/01 00:41:18;;;;;;;;;;;;;;;;;;347079;28;1032;-74
2021/11/01 00:41:28;;;;;;;;;;;;;;;;;;345703;28;1746;-72
2021/11/01 00:41:39;;;;;;;;;;;;;;;;;;345815;28;1044;-74
2021/11/01 00:42:10;;;;;;;;;;;;;;;;;;345762;28;763;-74
2021/11/01 00:42:25;;;;;;;;;;;;;;;;;;344354;28;1293;-75
2021/11/01 00:42:35;;;;;;;;;;;;;;;;;;343403;28;1432;-74
2021/11/01 00:42:45;;;;;;;;;;;;;;;;;;343092;28;804;-74
2021/11/01 00:43:11;;;;;;;;;;;;;;;;;;342705;28;1358;-74
2021/11/01 00:43:27;;;;;;;;;;;;;;;;;;344453;28;1008;-75
2021/11/01 00:44:04;;;;;;;;;;;;;;;;;;341751;29;815;-74
2021/11/01 00:44:14;;;;;;;;;;;;;;;;;;341803;29;938;-74
2021/11/01 00:44:25;;;;;;;;;;;;;;;;;;341754;29;1049;-74
2021/11/01 00:44:44;;;;;;;;;;;;;;;;;;343134;28;788;-74
2021/11/01 00:45:00;;;;;;;;;;;;;;;;;;344422;28;1005;-74
2021/11/01 00:45:11;;;;;;;;;;;;;;;;;;344393;28;993;-75
2021/11/01 00:45:21;;;;;;;;;;;;;;;;;;343072;28;1001;-74
2021/11/01 00:45:32;;;;;;;;;;;;;;;;;;343432;28;985;-74
2021/11/01 00:45:42;;;;;;;;;;;;;;;;;;344427;28;822;-74
2021/11/01 00:45:53;;;;;;;;;;;;;;;;;;344357;28;965;-74
2021/11/01 00:46:03;;;;;;;;;;;;;;;;;;344343;28;921;-73
2021/11/01 00:46:14;;;;;;;;;;;;;;;;;;344462;28;977;-74
2021/11/01 00:46:25;;;;;;;;;;;;;;;;;;345455;28;970;-74
2021/11/01 00:46:36;;;;;;;;;;;;;;;;;;347061;28;886;-75
2021/11/01 00:46:46;;;;;;;;;;;;;;;;;;347206;28;811;-74
2021/11/01 00:47:23;;;;;;;;;;;;;;;;;;348497;28;957;-74
2021/11/01 00:47:33;;;;;;;;;;;;;;;;;;348692;28;852;-73
2021/11/01 00:47:44;;;;;;;;;;;;;;;;;;348529;28;995;-73
2021/11/01 00:48:20;;;;;;;;;;;;;;;;;;348481;28;941;-74
2021/11/01 00:48:30;;;;;;;;;;;;;;;;;;348582;28;739;-74
2021/11/01 00:48:41;;;;;;;;;;;;;;;;;;348427;28;1291;-74
2021/11/01 00:48:51;;;;;;;;;;;;;;;;;;348500;28;1043;-74
2021/11/01 00:49:28;;;;;;;;;;;;;;;;;;348524;28;810;-74
2021/11/01 00:49:39;;;;;;;;;;;;;;;;;;348447;28;999;-75
2021/11/01 00:49:51;;;;;;;;;;;;;;;;;;348447;28;1210;-75
2021/11/01 00:50:02;;;;;;;;;;;;;;;;;;347066;28;953;-75
2021/11/01 00:50:13;;;;;;;;;;;;;;;;;;347046;28;1020;-74
2021/11/01 00:50:52;;;;;;;;;;;;;;;;;;347131;28;874;-75
2021/11/01 00:51:24;;;;;;;;;;;;;;;;;;347125;28;976;-75
2021/11/01 00:51:40;;;;;;;;;;;;;;;;;;347102;28;1363;-75
2021/11/01 00:51:51;;;;;;;;;;;;;;;;;;345799;28;940;-74
2021/11/01 00:52:30;;;;;;;;;;;;;;;;;;348412;28;818;-74
2021/11/01 00:52:40;;;;;;;;;;;;;;;;;;348497;28;1005;-74
2021/11/01 00:53:07;;;;;;;;;;;;;;;;;;347220;28;841;-75
2021/11/01 00:53:17;;;;;;;;;;;;;;;;;;347135;28;973;-74
2021/11/01 00:53:30;;;;;;;;;;;;;;;;;;345713;28;1212;-73
2021/11/01 00:53:47;;;;;;;;;;;;;;;;;;345704;28;910;-74
2021/11/01 00:53:57;;;;;;;;;;;;;;;;;;346350;28;794;-74
2021/11/01 00:54:08;;;;;;;;;;;;;;;;;;347102;28;988;-74
2021/11/01 00:54:19;;;;;;;;;;;;;;;;;;347160;28;845;-75
2021/11/01 00:54:29;;;;;;;;;;;;;;;;;;347199;28;830;-74
2021/11/01 00:54:41;;;;;;;;;;;;;;;;;;347024;28;996;-75
2021/11/01 00:54:57;;;;;;;;;;;;;;;;;;346996;28;953;-75
2021/11/01 00:55:26;;;;;;;;;;;;;;;;;;347078;28;1317;-74
2021/11/01 00:55:50;;;;;;;;;;;;;;;;;;347133;28;902;-74
2021/11/01 00:56:01;;;;;;;;;;;;;;;;;;345539;28;1409;-74
2021/11/01 00:56:12;;;;;;;;;;;;;;;;;;345749;28;965;-74
2021/11/01 00:56:22;;;;;;;;;;;;;;;;;;345793;28;791;-74
2021/11/01 00:56:32;;;;;;;;;;;;;;;;;;345780;28;1036;-74
2021/11/01 00:56:43;;;;;;;;;;;;;;;;;;345790;28;818;-74
2021/11/01 00:56:53;;;;;;;;;;;;;;;;;;344076;28;977;-73
2021/11/01 00:57:04;;;;;;;;;;;;;;;;;;345479;28;999;-75
2021/11/01 00:57:14;;;;;;;;;;;;;;;;;;347061;28;1343;-74
2021/11/01 00:57:26;;;;;;;;;;;;;;;;;;347109;28;853;-74
2021/11/01 00:57:36;;;;;;;;;;;;;;;;;;347152;28;1036;-74
2021/11/01 00:57:47;;;;;;;;;;;;;;;;;;345775;28;965;-75
2021/11/01 00:58:26;;;;;;;;;;;;;;;;;;345783;28;783;-75
2021/11/01 00:58:42;;;;;;;;;;;;;;;;;;345803;28;862;-76
2021/11/01 00:58:58;;;;;;;;;;;;;;;;;;346309;28;803;-74
2021/11/01 00:59:09;;;;;;;;;;;;;;;;;;346181;28;783;-73
2021/11/01 00:59:20;;;;;;;;;;;;;;;;;;345760;28;865;-74
2021/11/01 00:59:31;;;;;;;;;;;;;;;;;;345789;28;981;-74
2021/11/01 00:59:41;;;;;;;;;;;;;;;;;;344507;28;988;-73
2021/11/01 00:59:52;;;;;;;;;;;;;;;;;;344344;28;1446;-75
2021/11/01 01:00:06;;;;;;;;;;;;;;;;;;344448;28;858;-74
2021/11/01 01:00:22;;;;;;;;;;;;;;;;;;344261;28;1168;-75
2021/11/01 01:00:59;;;;;;;;;;;;;;;;;;344347;28;962;-73
2021/11/01 01:01:09;;;;;;;;;;;;;;;;;;345592;28;985;-74
2021/11/01 01:01:19;;;;;;;;;;;;;;;;;;345680;28;961;-74
2021/11/01 01:01:32;;;;;;;;;;;;;;;;;;344421;28;950;-75
2021/11/01 01:01:43;;;;;;;;;;;;;;;;;;345803;28;810;-72
2021/11/01 01:01:53;;;;;;;;;;;;;;;;;;345853;28;878;-74
2021/11/01 01:02:04;;;;;;;;;;;;;;;;;;345790;28;914;-75
2021/11/01 01:02:14;;;;;;;;;;;;;;;;;;344369;28;1284;-75
2021/11/01 01:02:31;;;;;;;;;;;;;;;;;;345714;28;977;-75
2021/11/01 01:02:44;;;;;;;;;;;;;;;;;;345752;28;937;-74
2021/11/01 01:02:54;;;;;;;;;;;;;;;;;;345752;28;910;-75
2021/11/01 01:03:04;;;;;;;;;;;;;;;;;;345792;28;969;-74
2021/11/01 01:03:15;;;;;;;;;;;;;;;;;;345751;28;941;-74
2021/11/01 01:03:26;;;;;;;;;;;;;;;;;;346479;28;1025;-74
2021/11/01 01:03:37;;;;;;;;;;;;;;;;;;346973;28;908;-75
2021/11/01 01:04:02;;;;;;;;;;;;;;;;;;345676;28;1427;-75
2021/11/01 01:04:13;;;;;;;;;;;;;;;;;;348151;28;842;-74
2021/11/01 01:04:24;;;;;;;;;;;;;;;;;;347081;28;1282;-74
2021/11/01 01:04:35;;;;;;;;;;;;;;;;;;345606;28;1268;-74
2021/11/01 01:04:45;;;;;;;;;;;;;;;;;;345758;28;752;-75
2021/11/01 01:04:56;;;;;;;;;;;;;;;;;;344395;28;926;-74
2021/11/01 01:05:07;;;;;;;;;;;;;;;;;;343018;28;1281;-74
2021/11/01 01:05:17;;;;;;;;;;;;;;;;;;343974;28;1413;-75
2021/11/01 01:05:27;;;;;;;;;;;;;;;;;;344441;28;980;-75
2021/11/01 01:05:38;;;;;;;;;;;;;;;;;;342802;28;1137;-75
2021/11/01 01:05:49;;;;;;;;;;;;;;;;;;342760;28;1037;-74
2021/11/01 01:06:02;;;;;;;;;;;;;;;;;;341587;29;1304;-74
2021/11/01 01:06:12;;;;;;;;;;;;;;;;;;341606;29;989;-74
2021/11/01 01:06:48;;;;;;;;;;;;;;;;;;342880;28;1186;-74
2021/11/01 01:07:01;;;;;;;;;;;;;;;;;;342862;28;1019;-74
2021/11/01 01:07:11;;;;;;;;;;;;;;;;;;342953;28;1911;-74
2021/11/01 01:07:22;;;;;;;;;;;;;;;;;;342966;28;968;-74
2021/11/01 01:07:32;;;;;;;;;;;;;;;;;;343459;28;928;-75
2021/11/01 01:07:42;;;;;;;;;;;;;;;;;;343048;28;862;-75
2021/11/01 01:07:53;;;;;;;;;;;;;;;;;;343623;28;857;-75
2021/11/01 01:08:03;;;;;;;;;;;;;;;;;;345707;28;813;-75
2021/11/01 01:08:41;;;;;;;;;;;;;;;;;;345882;28;984;-74
2021/11/01 01:08:51;;;;;;;;;;;;;;;;;;347166;28;913;-74
2021/11/01 01:09:02;;;;;;;;;;;;;;;;;;347142;28;884;-74
2021/11/01 01:09:12;;;;;;;;;;;;;;;;;;347145;28;861;-75
2021/11/01 01:10:15;;;;;;;;;;;;;;;;;;348457;28;805;-74
2021/11/01 01:10:25;;;;;;;;;;;;;;;;;;348518;28;978;-74
2021/11/01 01:10:35;;;;;;;;;;;;;;;;;;347137;28;814;-74
2021/11/01 01:10:48;;;;;;;;;;;;;;;;;;347075;28;960;-75
2021/11/01 01:10:58;;;;;;;;;;;;;;;;;;345791;28;853;-74
2021/11/01 01:11:09;;;;;;;;;;;;;;;;;;346153;28;957;-74
2021/11/01 01:11:20;;;;;;;;;;;;;;;;;;346943;28;774;-75
2021/11/01 01:11:30;;;;;;;;;;;;;;;;;;347132;28;984;-74
2021/11/01 01:11:41;;;;;;;;;;;;;;;;;;345793;28;1106;-74
2021/11/01 01:11:51;;;;;;;;;;;;;;;;;;345798;28;829;-74
2021/11/01 01:12:02;;;;;;;;;;;;;;;;;;345747;28;881;-74
2021/11/01 01:12:13;;;;;;;;;;;;;;;;;;345564;28;992;-74
2021/11/01 01:12:48;;;;;;;;;;;;;;;;;;344308;28;906;-73
2021/11/01 01:13:05;;;;;;;;;;;;;;;;;;347157;28;913;-75
2021/11/01 01:13:19;;;;;;;;;;;;;;;;;;347125;28;1011;-74
2021/11/01 01:13:34;;;;;;;;;;;;;;;;;;346960;28;1528;-74
2021/11/01 01:13:45;;;;;;;;;;;;;;;;;;345690;28;1212;-74
2021/11/01 01:13:56;;;;;;;;;;;;;;;;;;345784;28;929;-75
2021/11/01 01:14:07;;;;;;;;;;;;;;;;;;344325;28;1324;-74
2021/11/01 01:14:25;;;;;;;;;;;;;;;;;;344799;28;1028;-74
2021/11/01 01:14:42;;;;;;;;;;;;;;;;;;344353;28;1343;-75
2021/11/01 01:14:58;;;;;;;;;;;;;;;;;;344373;28;996;-74
2021/11/01 01:15:10;;;;;;;;;;;;;;;;;;343092;28;1005;-75
2021/11/01 01:15:29;;;;;;;;;;;;;;;;;;343007;28;914;-74
2021/11/01 01:15:53;;;;;;;;;;;;;;;;;;344117;28;835;-74
2021/11/01 01:16:26;;;;;;;;;;;;;;;;;;345955;28;850;-75
2021/11/01 01:16:43;;;;;;;;;;;;;;;;;;347706;28;1150;-75
2021/11/01 01:16:54;;;;;;;;;;;;;;;;;;348362;28;956;-75
2021/11/01 01:17:05;;;;;;;;;;;;;;;;;;348535;28;936;-75
2021/11/01 01:17:16;;;;;;;;;;;;;;;;;;348425;28;1168;-75
2021/11/01 01:17:52;;;;;;;;;;;;;;;;;;348517;28;798;-75
2021/11/01 01:18:09;;;;;;;;;;;;;;;;;;348508;28;976;-75
2021/11/01 01:18:33;;;;;;;;;;;;;;;;;;348482;28;817;-74
2021/11/01 01:18:43;;;;;;;;;;;;;;;;;;348439;28;920;-75
2021/11/01 01:18:57;;;;;;;;;;;;;;;;;;348457;28;917;-74
2021/11/01 01:19:15;;;;;;;;;;;;;;;;;;348438;28;822;-74
2021/11/01 01:19:32;;;;;;;;;;;;;;;;;;348469;28;1059;-75
2021/11/01 01:19:57;;;;;;;;;;;;;;;;;;348467;28;876;-74
2021/11/01 01:20:10;;;;;;;;;;;;;;;;;;348490;28;987;-75
2021/11/01 01:20:21;;;;;;;;;;;;;;;;;;347117;28;1036;-74
2021/11/01 01:20:32;;;;;;;;;;;;;;;;;;347158;28;905;-74
2021/11/01 01:20:43;;;;;;;;;;;;;;;;;;347087;28;984;-74
2021/11/01 01:20:55;;;;;;;;;;;;;;;;;;347152;28;869;-74
2021/11/01 01:22:30;;;;;;;;;;;;;;;;;;341692;29;890;-74
2021/11/01 01:22:42;;;;;;;;;;;;;;;;;;348467;28;1003;-74
2021/11/01 01:23:08;;;;;;;;;;;;;;;;;;348506;28;940;-75
2021/11/01 01:23:19;;;;;;;;;;;;;;;;;;348573;28;814;-74
2021/11/01 01:23:30;;;;;;;;;;;;;;;;;;348576;28;952;-75
2021/11/01 01:23:40;;;;;;;;;;;;;;;;;;348343;28;953;-74
2021/11/01 01:23:50;;;;;;;;;;;;;;;;;;348506;28;940;-74
2021/11/01 01:24:01;;;;;;;;;;;;;;;;;;348502;28;813;-73
2021/11/01 01:24:11;;;;;;;;;;;;;;;;;;348378;28;1287;-74
2021/11/01 01:24:22;;;;;;;;;;;;;;;;;;348508;28;825;-74
2021/11/01 01:25:02;;;;;;;;;;;;;;;;;;348452;28;1020;-74
2021/11/01 01:25:21;;;;;;;;;;;;;;;;;;348533;28;862;-74
2021/11/01 01:26:01;;;;;;;;;;;;;;;;;;348399;28;1217;-74
2021/11/01 01:26:14;;;;;;;;;;;;;;;;;;348545;28;968;-74
2021/11/01 01:26:25;;;;;;;;;;;;;;;;;;346870;28;1209;-74
2021/11/01 01:26:36;;;;;;;;;;;;;;;;;;347081;28;905;-74
2021/11/01 01:26:47;;;;;;;;;;;;;;;;;;347097;28;1004;-75
2021/11/01 01:27:03;;;;;;;;;;;;;;;;;;347117;28;993;-75
2021/11/01 01:27:14;;;;;;;;;;;;;;;;;;345730;28;1970;-73
2021/11/01 01:27:24;;;;;;;;;;;;;;;;;;345710;28;925;-74
2021/11/01 01:27:34;;;;;;;;;;;;;;;;;;345739;28;933;-73
2021/11/01 01:27:45;;;;;;;;;;;;;;;;;;345746;28;940;-74
2021/11/01 01:27:55;;;;;;;;;;;;;;;;;;345793;28;845;-74
2021/11/01 01:28:12;;;;;;;;;;;;;;;;;;345715;28;945;-75
2021/11/01 01:28:23;;;;;;;;;;;;;;;;;;347729;28;1123;-73
2021/11/01 01:28:33;;;;;;;;;;;;;;;;;;348416;28;924;-74
2021/11/01 01:28:44;;;;;;;;;;;;;;;;;;348511;28;976;-74
2021/11/01 01:28:55;;;;;;;;;;;;;;;;;;347044;28;1296;-74
2021/11/01 01:29:07;;;;;;;;;;;;;;;;;;347223;28;790;-74
2021/11/01 01:29:17;;;;;;;;;;;;;;;;;;348439;28;988;-74
2021/11/01 01:29:27;;;;;;;;;;;;;;;;;;347108;28;988;-74
2021/11/01 01:29:38;;;;;;;;;;;;;;;;;;347082;28;921;-72
2021/11/01 01:29:50;;;;;;;;;;;;;;;;;;345734;28;834;-73
2021/11/01 01:30:01;;;;;;;;;;;;;;;;;;345611;28;1210;-73
2021/11/01 01:30:11;;;;;;;;;;;;;;;;;;344316;28;1348;-74
2021/11/01 01:30:24;;;;;;;;;;;;;;;;;;344275;28;1044;-73
2021/11/01 01:31:06;;;;;;;;;;;;;;;;;;344442;28;830;-72
2021/11/01 01:31:17;;;;;;;;;;;;;;;;;;344406;28;810;-73
2021/11/01 01:31:27;;;;;;;;;;;;;;;;;;345485;28;838;-74
2021/11/01 01:31:43;;;;;;;;;;;;;;;;;;345715;28;1024;-74
2021/11/01 01:32:20;;;;;;;;;;;;;;;;;;346968;28;1298;-74
2021/11/01 01:32:30;;;;;;;;;;;;;;;;;;346969;28;1026;-74
2021/11/01 01:32:41;;;;;;;;;;;;;;;;;;347051;28;901;-74
2021/11/01 01:32:52;;;;;;;;;;;;;;;;;;347050;28;893;-74
2021/11/01 01:33:02;;;;;;;;;;;;;;;;;;347074;28;1036;-74
2021/11/01 01:33:13;;;;;;;;;;;;;;;;;;347147;28;972;-74
2021/11/01 01:33:23;;;;;;;;;;;;;;;;;;347753;28;921;-74
2021/11/01 01:33:34;;;;;;;;;;;;;;;;;;348480;28;849;-74
2021/11/01 01:33:44;;;;;;;;;;;;;;;;;;348452;28;988;-74
2021/11/01 01:33:55;;;;;;;;;;;;;;;;;;348502;28;1047;-74
2021/11/01 01:34:05;;;;;;;;;;;;;;;;;;348431;28;936;-74
2021/11/01 01:34:16;;;;;;;;;;;;;;;;;;348532;28;1179;-74
2021/11/01 01:34:26;;;;;;;;;;;;;;;;;;348551;28;1023;-74
2021/11/01 01:35:03;;;;;;;;;;;;;;;;;;348520;28;977;-74
2021/11/01 01:35:13;;;;;;;;;;;;;;;;;;348472;28;822;-72
2021/11/01 01:35:35;;;;;;;;;;;;;;;;;;346994;28;1351;-72
2021/11/01 01:35:50;;;;;;;;;;;;;;;;;;347125;28;822;-74
2021/11/01 01:36:00;;;;;;;;;;;;;;;;;;347136;28;965;-74
2021/11/01 01:36:16;;;;;;;;;;;;;;;;;;345755;28;803;-74
2021/11/01 01:36:27;;;;;;;;;;;;;;;;;;345600;28;981;-74
2021/11/01 01:37:03;;;;;;;;;;;;;;;;;;345674;28;973;-74
2021/11/01 01:37:13;;;;;;;;;;;;;;;;;;347000;28;850;-74
2021/11/01 01:37:53;;;;;;;;;;;;;;;;;;348446;28;1020;-75
2021/11/01 01:38:13;;;;;;;;;;;;;;;;;;347286;28;933;-74
2021/11/01 01:38:24;;;;;;;;;;;;;;;;;;347052;28;1024;-74
2021/11/01 01:38:35;;;;;;;;;;;;;;;;;;347164;28;826;-74
2021/11/01 01:38:46;;;;;;;;;;;;;;;;;;347117;28;932;-72
2021/11/01 01:38:56;;;;;;;;;;;;;;;;;;347106;28;925;-74
2021/11/01 01:39:07;;;;;;;;;;;;;;;;;;346998;28;905;-74
2021/11/01 01:39:18;;;;;;;;;;;;;;;;;;347049;28;1043;-74
2021/11/01 01:39:28;;;;;;;;;;;;;;;;;;345519;28;992;-74
2021/11/01 01:40:20;;;;;;;;;;;;;;;;;;347101;28;989;-74
2021/11/01 01:40:57;;;;;;;;;;;;;;;;;;347178;28;889;-75
2021/11/01 01:41:14;;;;;;;;;;;;;;;;;;348503;28;1067;-74
2021/11/01 01:41:26;;;;;;;;;;;;;;;;;;347467;28;1277;-74
2021/11/01 01:41:36;;;;;;;;;;;;;;;;;;348298;28;798;-75
2021/11/01 01:41:47;;;;;;;;;;;;;;;;;;348490;28;888;-74
2021/11/01 01:41:57;;;;;;;;;;;;;;;;;;348471;28;968;-74
2021/11/01 01:42:07;;;;;;;;;;;;;;;;;;348530;28;775;-75
2021/11/01 01:42:18;;;;;;;;;;;;;;;;;;348468;28;996;-73
2021/11/01 01:42:28;;;;;;;;;;;;;;;;;;348504;28;807;-72
2021/11/01 01:43:21;;;;;;;;;;;;;;;;;;348441;28;988;-74
2021/11/01 01:43:31;;;;;;;;;;;;;;;;;;348578;28;928;-74
2021/11/01 01:44:12;;;;;;;;;;;;;;;;;;348548;28;1012;-75
2021/11/01 01:44:23;;;;;;;;;;;;;;;;;;348416;28;1435;-73
2021/11/01 01:44:33;;;;;;;;;;;;;;;;;;348537;28;794;-75
2021/11/01 01:44:44;;;;;;;;;;;;;;;;;;348482;28;917;-74
2021/11/01 01:44:54;;;;;;;;;;;;;;;;;;348444;28;810;-73
2021/11/01 01:45:07;;;;;;;;;;;;;;;;;;348467;28;826;-73
2021/11/01 01:45:17;;;;;;;;;;;;;;;;;;347046;28;1361;-75
2021/11/01 01:45:27;;;;;;;;;;;;;;;;;;345611;28;1220;-74
2021/11/01 01:45:38;;;;;;;;;;;;;;;;;;345768;28;929;-73
2021/11/01 01:45:49;;;;;;;;;;;;;;;;;;345636;28;878;-74
2021/11/01 01:45:59;;;;;;;;;;;;;;;;;;345478;28;931;-74
2021/11/01 01:46:09;;;;;;;;;;;;;;;;;;344295;28;1440;-73
2021/11/01 01:46:21;;;;;;;;;;;;;;;;;;345168;28;874;-74
2021/11/01 01:46:31;;;;;;;;;;;;;;;;;;345658;28;1044;-74
2021/11/01 01:46:42;;;;;;;;;;;;;;;;;;345602;28;845;-73